world map with OEJN marked

OEJN - Airport

This information may not be accurate or current and is not valid for navigation or flight planning. No warranty of fitness for any purpose is made or implied.

flag of Saudi Arabia

Donate via PayPal

Additional information is available on the NEW Great Circle Mapper

Location
City:  Jeddah, Saudi Arabia
Name:King Abdul Aziz International Airport
ICAO / IATA:OEJN / JED

Details
Type:Airport (Aerodrome, Airfield)
Use:Public/Civil, Military
Latitude:21°40'52"N (21.681111)
Longitude:39°09'20"E (39.155556)
Elevation:48 ft (15 m)
Runways:3
Longest:13123 × 197 ft (4000 × 60 m)

Time
Timezone:UTC+3 (DST+5)
Local Time:

Weather
METAR:OEJN  041400Z 28006KT CAVOK 28/16 Q1013 NOSIG
TAF:OEJN  031700Z 0318/0424 VRB03KT 9999 FEW040 BECMG 0406/0408 24012KT

Related Locations
Nearby:
Farthest:UOA: 12317 mi / 19822 km
Mururoa Atoll [Mururoa Airstrip], PF

Find:

   beyond  
but within

Other Information
Maps:
Sources:

  


 


Great Circle Mapper   Great Circle Mapper
Great Circle Mapper FAQ   Great Circle Mapper FAQ
  Karl's Home Page
KLSē   KLSē Home
   GC on Facebook
Airlines of the World   Airlines of the World
Donate via PayPal


Copyright © 2004-2019, Karl L. Swartz. All rights reserved.
All trademarks mentioned herein belong to their respective owners.

Please see credits for attribution and copyright information.

Karl Swartz <karl@kls2.com>
  Powered by FreeBSD
Valid HTML 4.01!
Labeled with ICRA
hCard Microformat
Geo Microformat